createdAt,value
2022-10-02T00:00:03.044Z,9.38
2022-10-02T00:02:38.746Z,9.52
2022-10-02T00:05:27.726Z,9.10
2022-10-02T00:08:04.917Z,9.25
2022-10-02T00:10:47.320Z,8.43
2022-10-02T00:13:58.480Z,8.60
2022-10-02T00:16:48.895Z,9.73
2022-10-02T00:19:20.743Z,8.38
2022-10-02T00:22:20.276Z,8.40
2022-10-02T00:25:06.416Z,8.35
2022-10-02T00:28:06.782Z,8.10
2022-10-02T00:30:58.431Z,7.97
2022-10-02T00:33:53.764Z,8.10
2022-10-02T00:36:44.253Z,7.65
2022-10-02T00:40:07.765Z,7.50
2022-10-02T00:43:04.255Z,7.72
2022-10-02T00:45:42.226Z,7.38
2022-10-02T00:48:47.711Z,7.45
2022-10-02T00:51:59.132Z,7.50
2022-10-02T00:55:16.872Z,7.57
2022-10-02T00:58:04.897Z,7.50
2022-10-02T01:00:33.564Z,7.80
2022-10-02T01:03:40.272Z,7.50
2022-10-02T01:06:11.312Z,8.02
2022-10-02T01:08:39.700Z,8.40
2022-10-02T01:11:08.642Z,7.95
2022-10-02T01:13:37.131Z,7.65
2022-10-02T01:16:05.989Z,7.75
2022-10-02T01:18:34.482Z,7.20
2022-10-02T01:21:33.280Z,7.57
2022-10-02T01:24:14.603Z,8.05
2022-10-02T01:26:43.633Z,9.15
2022-10-02T01:29:11.999Z,8.52
2022-10-02T01:31:40.175Z,8.05
2022-10-02T01:34:08.870Z,8.95
2022-10-02T01:36:37.072Z,8.60
2022-10-02T01:39:05.795Z,8.20
2022-10-02T01:41:44.230Z,8.25
2022-10-02T01:44:13.660Z,8.55
2022-10-02T01:47:05.989Z,8.65
2022-10-02T01:50:12.339Z,9.07
2022-10-02T01:53:31.999Z,8.02
2022-10-02T01:56:31.372Z,7.78
2022-10-02T01:59:41.766Z,9.02
2022-10-02T02:02:25.090Z,8.32
2022-10-02T02:07:49.360Z,8.07
2022-10-02T02:10:35.569Z,8.50
2022-10-02T02:13:36.664Z,11.20
2022-10-02T02:16:42.915Z,7.97
2022-10-02T02:20:01.080Z,7.70
2022-10-02T02:22:36.673Z,7.32
2022-10-02T02:25:23.358Z,7.30
2022-10-02T02:28:01.440Z,6.78
2022-10-02T02:30:32.594Z,7.20
2022-10-02T02:33:23.395Z,7.18
2022-10-02T02:36:08.156Z,7.35
2022-10-02T02:38:46.441Z,7.70
2022-10-02T02:41:19.830Z,7.70
2022-10-02T02:44:23.527Z,7.55
2022-10-02T02:47:11.549Z,7.38
2022-10-02T02:50:01.996Z,7.22
2022-10-02T02:52:42.718Z,7.03
2022-10-02T02:55:59.134Z,6.88
2022-10-02T02:58:49.180Z,6.80
2022-10-02T03:01:16.805Z,6.90
2022-10-02T03:03:44.848Z,7.60
2022-10-02T03:06:19.257Z,6.10
2022-10-02T03:08:51.314Z,6.70
2022-10-02T03:12:03.951Z,6.07
2022-10-02T03:14:57.910Z,6.10
2022-10-02T03:18:04.244Z,6.50
2022-10-02T03:20:49.826Z,7.63
2022-10-02T03:23:50.239Z,5.72
2022-10-02T03:26:26.881Z,5.75
2022-10-02T03:29:03.525Z,6.60
2022-10-02T03:31:35.607Z,5.85
2022-10-02T03:34:04.833Z,5.60
2022-10-02T03:36:33.642Z,5.43
2022-10-02T03:39:24.150Z,5.45
2022-10-02T03:41:53.102Z,5.35
2022-10-02T03:44:20.800Z,5.80
2022-10-02T03:46:49.453Z,5.35
2022-10-02T03:49:18.378Z,5.28
2022-10-02T03:51:47.830Z,5.70
2022-10-02T03:54:22.966Z,4.63
2022-10-02T03:56:59.623Z,4.90
2022-10-02T04:00:20.952Z,4.68
2022-10-02T04:03:10.790Z,4.43
2022-10-02T04:05:48.795Z,4.35
2022-10-02T04:08:28.799Z,4.57
2022-10-02T04:11:49.186Z,4.32
2022-10-02T04:14:35.890Z,4.22
2022-10-02T04:17:44.343Z,4.53
2022-10-02T04:20:23.554Z,4.13
2022-10-02T04:23:35.870Z,4.03
2022-10-02T04:26:30.976Z,4.20
2022-10-02T04:29:25.230Z,3.80
2022-10-02T04:32:12.879Z,3.75
2022-10-02T04:34:41.874Z,4.10
2022-10-02T04:37:38.127Z,3.88
2022-10-02T04:40:28.553Z,3.60
2022-10-02T04:43:24.182Z,3.78
2022-10-02T04:45:51.786Z,3.97
2022-10-02T04:48:56.628Z,4.22
2022-10-02T04:51:56.088Z,3.80
2022-10-02T04:54:50.626Z,4.30
2022-10-02T04:57:42.418Z,3.67
2022-10-02T05:00:23.098Z,6.20
2022-10-02T05:03:36.896Z,4.75
2022-10-02T05:06:32.178Z,4.32
2022-10-02T05:09:40.305Z,4.82
2022-10-02T05:12:07.887Z,4.70
2022-10-02T05:15:36.932Z,3.13
2022-10-02T05:18:54.855Z,10.57
2022-10-02T05:21:44.318Z,3.83
2022-10-02T05:25:11.857Z,3.45
2022-10-02T05:28:13.462Z,3.47
2022-10-02T05:31:16.058Z,3.20
2022-10-02T05:34:15.242Z,3.80
2022-10-02T05:37:39.756Z,3.25
2022-10-02T05:40:16.152Z,4.20
2022-10-02T05:43:12.721Z,3.30
2022-10-02T05:46:32.724Z,3.15
2022-10-02T05:49:09.228Z,2.78
2022-10-02T05:51:59.605Z,3.42
2022-10-02T05:54:47.414Z,3.50
2022-10-02T05:57:32.184Z,3.33
2022-10-02T06:00:21.100Z,3.78
2022-10-02T06:03:25.667Z,2.90
2022-10-02T06:06:04.148Z,3.35
2022-10-02T06:08:43.106Z,2.92
2022-10-02T06:11:42.999Z,3.88
2022-10-02T06:14:36.437Z,3.33
2022-10-02T06:17:09.949Z,2.85
2022-10-02T06:20:13.202Z,2.97
2022-10-02T06:22:59.147Z,3.42
2022-10-02T06:25:50.230Z,3.10
2022-10-02T06:28:43.206Z,3.20
2022-10-02T06:31:42.357Z,3.30
2022-10-02T06:34:14.453Z,3.00
2022-10-02T06:36:59.508Z,3.75
2022-10-02T06:39:56.931Z,3.13
2022-10-02T06:43:17.861Z,3.25
2022-10-02T06:45:54.576Z,3.28
2022-10-02T06:48:43.042Z,4.03
2022-10-02T06:51:31.934Z,3.17
2022-10-02T06:54:23.469Z,2.97
2022-10-02T06:57:09.822Z,3.70
2022-10-02T07:00:13.846Z,3.33
2022-10-02T07:02:49.711Z,3.40
2022-10-02T07:05:56.626Z,3.50
2022-10-02T07:09:00.050Z,3.85
2022-10-02T07:11:41.382Z,3.53
2022-10-02T07:14:24.780Z,3.72
2022-10-02T07:20:25.750Z,3.17
2022-10-02T07:23:38.313Z,3.35
2022-10-02T07:26:19.956Z,3.50
2022-10-02T07:29:31.087Z,4.25
2022-10-02T07:32:01.655Z,3.38
2022-10-02T07:34:54.628Z,3.22
2022-10-02T07:37:40.579Z,3.65
2022-10-02T07:40:42.583Z,3.65
2022-10-02T07:43:54.530Z,4.07
2022-10-02T07:47:20.584Z,3.72
2022-10-02T07:50:13.948Z,4.13
2022-10-02T07:53:18.211Z,3.78
2022-10-02T07:55:56.298Z,3.70
2022-10-02T07:58:43.999Z,4.13
2022-10-02T08:01:24.082Z,4.07
2022-10-02T08:04:06.359Z,4.32
2022-10-02T08:06:37.203Z,3.63
2022-10-02T08:09:44.232Z,4.25
2022-10-02T08:12:34.316Z,3.90
2022-10-02T08:15:06.398Z,4.78
2022-10-02T08:17:48.872Z,11.10
2022-10-02T08:20:39.249Z,3.83
2022-10-02T08:24:01.048Z,3.40
2022-10-02T08:27:01.203Z,4.15
2022-10-02T08:29:50.636Z,4.45
2022-10-02T08:32:18.148Z,3.47
2022-10-02T08:34:46.074Z,5.57
2022-10-02T08:37:29.949Z,4.50
2022-10-02T08:40:44.034Z,4.20
2022-10-02T08:46:04.689Z,4.35
2022-10-02T08:48:50.900Z,3.80
2022-10-02T08:51:42.427Z,3.70
2022-10-02T08:54:22.556Z,7.80
2022-10-02T08:57:20.254Z,8.82
2022-10-02T09:00:25.998Z,4.85
2022-10-02T09:03:28.392Z,4.47
2022-10-02T09:06:10.283Z,4.10
2022-10-02T09:09:22.758Z,3.92
2022-10-02T09:12:05.978Z,3.78
2022-10-02T09:14:55.581Z,3.97
2022-10-02T09:17:45.286Z,3.90
2022-10-02T09:20:40.992Z,4.53
2022-10-02T09:24:07.318Z,4.18
2022-10-02T09:27:10.658Z,3.05
2022-10-02T09:30:03.883Z,2.63
2022-10-02T09:32:55.309Z,3.22
2022-10-02T09:35:31.442Z,4.28
2022-10-02T09:38:29.803Z,2.80
2022-10-02T09:41:49.909Z,2.63
2022-10-02T09:44:43.895Z,7.60
2022-10-02T09:48:02.714Z,2.95
2022-10-02T09:50:46.952Z,2.20
2022-10-02T09:54:00.809Z,2.50
2022-10-02T09:57:41.804Z,2.60
2022-10-02T10:00:34.242Z,2.40
2022-10-02T10:03:29.720Z,2.97
2022-10-02T10:06:35.649Z,3.00
2022-10-02T10:09:56.155Z,2.65
2022-10-02T10:12:41.613Z,4.28
2022-10-02T10:15:21.592Z,3.88
2022-10-02T10:18:26.811Z,2.90
2022-10-02T10:21:38.746Z,2.67
2022-10-02T10:24:37.752Z,3.30
2022-10-02T10:27:08.001Z,4.20
2022-10-02T10:29:41.246Z,4.15
2022-10-02T10:32:33.073Z,5.82
2022-10-02T10:35:27.860Z,3.78
2022-10-02T10:38:33.570Z,10.05
2022-10-02T10:41:37.794Z,3.65
2022-10-02T10:44:33.211Z,3.90
2022-10-02T10:47:20.306Z,4.93
2022-10-02T10:50:32.044Z,4.60
2022-10-02T10:53:34.389Z,4.45
2022-10-02T10:56:38.311Z,5.28
2022-10-02T11:03:09.268Z,4.32
2022-10-02T11:06:09.479Z,4.28
2022-10-02T11:08:59.823Z,5.28
2022-10-02T11:11:40.671Z,3.45
2022-10-02T11:14:53.172Z,5.97
2022-10-02T11:17:33.170Z,3.30
2022-10-02T11:20:06.334Z,3.10
2022-10-02T11:25:21.930Z,2.47
2022-10-02T11:28:01.852Z,3.33
2022-10-02T11:30:41.833Z,2.22
2022-10-02T11:33:33.855Z,2.03
2022-10-02T11:36:30.324Z,2.65
2022-10-02T11:40:08.665Z,2.72
2022-10-02T11:55:55.213Z,2.50
2022-10-02T11:58:42.083Z,3.08
2022-10-02T12:01:43.503Z,2.15
2022-10-02T12:04:53.730Z,2.25
2022-10-02T12:08:18.838Z,2.03
2022-10-02T12:11:21.033Z,1.85
2022-10-02T12:13:54.731Z,1.83
2022-10-02T12:16:51.787Z,2.22
2022-10-02T12:20:16.226Z,1.63
2022-10-02T12:23:21.504Z,1.55
2022-10-02T12:26:40.820Z,2.80
2022-10-02T12:29:53.832Z,1.67
2022-10-02T12:32:44.453Z,1.77
2022-10-02T12:35:59.772Z,2.13
2022-10-02T12:38:57.792Z,2.30
2022-10-02T12:42:02.991Z,1.80
2022-10-02T12:44:56.743Z,2.60
2022-10-02T12:48:01.342Z,1.67
2022-10-02T12:51:06.156Z,1.20
2022-10-02T12:54:15.540Z,1.02
2022-10-02T12:57:38.758Z,1.25
2022-10-02T13:00:25.584Z,1.33
2022-10-02T13:03:19.006Z,1.20
2022-10-02T13:06:20.828Z,1.48
2022-10-02T13:09:09.171Z,1.30
2022-10-02T13:12:31.360Z,1.23
2022-10-02T13:15:29.613Z,2.05
2022-10-02T13:18:29.313Z,2.38
2022-10-02T13:21:17.812Z,2.25
2022-10-02T13:24:06.418Z,2.47
2022-10-02T13:27:19.716Z,3.15
2022-10-02T13:30:15.651Z,2.10
2022-10-02T13:33:12.142Z,1.75
2022-10-02T13:36:17.324Z,2.42
2022-10-02T13:39:19.853Z,2.00
2022-10-02T13:42:18.770Z,5.45
2022-10-02T13:45:24.551Z,6.28
2022-10-02T13:48:44.475Z,2.40
2022-10-02T13:51:27.514Z,3.00
2022-10-02T13:54:43.885Z,4.25
2022-10-02T13:57:57.894Z,6.65
2022-10-02T14:00:52.633Z,4.75
2022-10-02T14:03:29.964Z,4.03
2022-10-02T14:06:16.470Z,3.83
2022-10-02T14:09:27.326Z,3.88
2022-10-02T14:12:26.153Z,3.10
2022-10-02T14:15:12.789Z,3.40
2022-10-02T14:18:07.975Z,3.97
2022-10-02T14:20:44.484Z,3.15
2022-10-02T14:24:46.468Z,3.03
2022-10-02T14:27:59.544Z,4.53
2022-10-02T14:30:36.456Z,16.85
2022-10-02T14:33:40.077Z,4.78
2022-10-02T14:36:41.167Z,4.50
2022-10-02T14:39:35.908Z,3.25
2022-10-02T14:42:27.322Z,2.22
2022-10-02T14:45:19.622Z,2.60
2022-10-02T14:48:19.443Z,2.45
2022-10-02T14:50:58.953Z,2.72
2022-10-02T14:53:48.226Z,2.90
2022-10-02T14:57:01.928Z,1.85
2022-10-02T15:00:03.759Z,2.00
2022-10-02T15:03:03.774Z,2.15
2022-10-02T15:06:12.214Z,2.22
2022-10-02T15:08:51.601Z,3.10
2022-10-02T15:11:36.442Z,3.35
2022-10-02T15:14:21.651Z,2.20
2022-10-02T15:17:21.796Z,2.10
2022-10-02T15:20:02.702Z,3.03
2022-10-02T15:22:55.458Z,2.75
2022-10-02T15:25:32.030Z,3.33
2022-10-02T15:28:36.666Z,3.25
2022-10-02T15:31:55.906Z,3.33
2022-10-02T15:34:53.947Z,3.97
2022-10-02T15:38:11.744Z,3.63
2022-10-02T15:41:00.833Z,3.10
2022-10-02T15:44:30.450Z,3.35
2022-10-02T15:47:30.794Z,3.05
2022-10-02T15:50:45.455Z,3.63
2022-10-02T15:53:47.203Z,3.53
2022-10-02T15:56:48.686Z,3.63
2022-10-02T15:59:42.751Z,3.25
2022-10-02T16:02:54.981Z,3.20
2022-10-02T16:05:54.908Z,4.50
2022-10-02T16:09:02.286Z,4.78
2022-10-02T16:11:56.397Z,3.80
2022-10-02T16:15:03.482Z,3.45
2022-10-02T16:17:40.237Z,3.20
2022-10-02T16:20:45.660Z,3.03
2022-10-02T16:23:47.248Z,3.80
2022-10-02T16:26:35.123Z,3.50
2022-10-02T16:29:27.093Z,3.70
2022-10-02T16:32:22.652Z,3.05
2022-10-02T16:35:21.118Z,30.55
2022-10-02T16:38:38.302Z,4.75
2022-10-02T16:41:37.412Z,3.80
2022-10-02T16:44:24.958Z,3.65
2022-10-02T16:47:25.355Z,4.30
2022-10-02T16:50:21.355Z,4.18
2022-10-02T16:53:11.808Z,3.83
2022-10-02T16:55:57.732Z,3.67
2022-10-02T16:58:33.183Z,3.70
2022-10-02T17:01:49.550Z,4.57
2022-10-02T17:05:06.213Z,4.70
2022-10-02T17:08:05.849Z,4.35
2022-10-02T17:10:51.456Z,3.88
2022-10-02T17:14:11.244Z,4.00
2022-10-02T17:17:12.553Z,4.15
2022-10-02T17:19:51.505Z,3.45
2022-10-02T17:22:42.652Z,5.30
2022-10-02T17:25:52.707Z,4.20
2022-10-02T17:28:39.892Z,5.32
2022-10-02T17:31:35.939Z,5.90
2022-10-02T17:34:45.137Z,9.07
2022-10-02T17:37:18.582Z,5.38
2022-10-02T17:40:28.931Z,6.50
2022-10-02T17:43:50.901Z,8.45
2022-10-02T17:46:50.180Z,10.25
2022-10-02T17:49:48.946Z,13.88
2022-10-02T17:53:13.444Z,23.85
2022-10-02T17:56:23.316Z,8.10
2022-10-02T17:59:30.912Z,5.88
2022-10-02T18:02:39.229Z,4.80
2022-10-02T18:05:50.269Z,5.38
2022-10-02T18:09:02.145Z,10.75
2022-10-02T18:11:58.692Z,8.15
2022-10-02T18:14:42.793Z,6.22
2022-10-02T18:17:40.331Z,6.85
2022-10-02T18:20:28.323Z,9.98
2022-10-02T18:23:33.916Z,16.63
2022-10-02T18:26:44.410Z,10.88
2022-10-02T18:29:29.738Z,9.13
2022-10-02T18:32:36.560Z,16.15
2022-10-02T18:35:22.292Z,9.38
2022-10-02T18:38:23.534Z,10.15
2022-10-02T18:41:18.898Z,9.20
2022-10-02T18:43:52.064Z,10.95
2022-10-02T18:46:27.591Z,9.55
2022-10-02T18:49:12.040Z,10.70
2022-10-02T18:52:10.447Z,10.18
2022-10-02T18:55:35.679Z,8.93
2022-10-02T18:58:42.989Z,8.50
2022-10-02T19:01:43.090Z,7.75
2022-10-02T19:04:47.761Z,18.15
2022-10-02T19:07:30.016Z,11.27
2022-10-02T19:10:33.628Z,15.68
2022-10-02T19:13:23.322Z,13.82
2022-10-02T19:15:55.535Z,15.27
2022-10-02T19:18:30.481Z,10.23
2022-10-02T19:21:03.655Z,13.57
2022-10-02T19:23:53.869Z,12.27
2022-10-02T19:26:35.260Z,10.85
2022-10-02T19:29:21.787Z,9.30
2022-10-02T19:31:51.328Z,11.50
2022-10-02T19:34:28.504Z,11.63
2022-10-02T19:37:06.811Z,9.18
2022-10-02T19:39:42.150Z,10.30
2022-10-02T19:42:18.513Z,8.88
2022-10-02T19:44:53.231Z,9.25
2022-10-02T19:47:29.783Z,10.60
2022-10-02T19:50:01.828Z,11.80
2022-10-02T19:52:57.739Z,18.95
2022-10-02T19:55:56.085Z,20.98
2022-10-02T19:58:52.703Z,13.02
2022-10-02T20:01:27.214Z,11.27
2022-10-02T20:04:02.439Z,10.55
2022-10-02T20:06:35.404Z,10.32
2022-10-02T20:09:25.305Z,10.57
2022-10-02T20:12:04.774Z,6.90
2022-10-02T20:14:44.908Z,6.30
2022-10-02T20:17:14.335Z,5.68
2022-10-02T20:19:59.212Z,4.60
2022-10-02T20:22:54.739Z,4.82
2022-10-02T20:25:30.284Z,4.65
2022-10-02T20:28:26.829Z,4.55
2022-10-02T20:31:20.908Z,5.50
2022-10-02T20:34:03.020Z,4.78
2022-10-02T20:36:46.130Z,5.60
2022-10-02T20:39:20.618Z,5.20
2022-10-02T20:42:20.422Z,4.30
2022-10-02T20:44:48.594Z,4.60
2022-10-02T20:47:38.118Z,3.97
2022-10-02T20:50:24.468Z,4.88
2022-10-02T20:53:02.695Z,4.28
2022-10-02T20:55:59.189Z,4.30
2022-10-02T20:59:05.488Z,3.92
2022-10-02T21:02:30.493Z,3.80
2022-10-02T21:05:08.061Z,4.40
2022-10-02T21:08:14.609Z,3.95
2022-10-02T21:10:51.329Z,4.35
2022-10-02T21:13:43.022Z,3.50
2022-10-02T21:16:25.688Z,3.58
2022-10-02T21:19:36.136Z,3.35
2022-10-02T21:22:45.322Z,3.10
2022-10-02T21:25:50.619Z,3.40
2022-10-02T21:29:06.571Z,3.55
2022-10-02T21:32:12.407Z,3.47
2022-10-02T21:35:19.078Z,3.70
2022-10-02T21:38:04.824Z,3.03
2022-10-02T21:40:57.593Z,2.75
2022-10-02T21:44:09.609Z,3.20
2022-10-02T21:47:54.479Z,3.45
2022-10-02T21:50:49.041Z,2.97
2022-10-02T21:54:02.996Z,2.67
2022-10-02T21:57:21.932Z,2.50
2022-10-02T22:00:28.501Z,2.65
2022-10-02T22:03:05.100Z,2.40
2022-10-02T22:05:54.375Z,2.50
2022-10-02T22:08:52.820Z,3.67
2022-10-02T22:25:46.686Z,2.88
2022-10-02T22:28:40.058Z,2.60
2022-10-02T22:32:24.124Z,2.60
2022-10-02T22:35:21.972Z,2.58
2022-10-02T22:38:51.390Z,2.33
2022-10-02T22:41:54.227Z,2.38
2022-10-02T22:45:13.123Z,2.65
2022-10-02T22:47:56.963Z,3.25
2022-10-02T22:50:51.656Z,3.50
2022-10-02T22:53:29.683Z,3.15
2022-10-02T22:55:58.558Z,2.65
2022-10-02T22:59:03.676Z,2.53
2022-10-02T23:01:51.563Z,2.90
2022-10-02T23:04:27.627Z,2.35
2022-10-02T23:07:44.240Z,2.58
2022-10-02T23:11:06.157Z,2.60
2022-10-02T23:14:17.457Z,2.47
2022-10-02T23:16:57.156Z,2.58
2022-10-02T23:19:32.194Z,2.85
2022-10-02T23:22:23.731Z,2.38
2022-10-02T23:25:24.909Z,2.63
2022-10-02T23:28:11.945Z,2.80
2022-10-02T23:31:42.350Z,2.67
2022-10-02T23:34:22.342Z,2.70
2022-10-02T23:37:33.657Z,2.97
2022-10-02T23:40:18.950Z,2.30
2022-10-02T23:42:57.636Z,2.95
2022-10-02T23:45:40.216Z,2.30
2022-10-02T23:48:15.133Z,1.93
2022-10-02T23:51:06.666Z,2.70
2022-10-02T23:53:49.068Z,2.72
2022-10-02T23:56:38.394Z,2.20
2022-10-02T23:59:45.449Z,2.58
